Time;durP1;ratioP1;P1;durP2;ratioP2;P2;SDS_P1;SDS_P2;PMS_P1;PMS_P2;Temp;Humidity;BMP_temperature;BMP_pressure;BME280_temperature;BME280_humidity;BME280_pressure;Samples;Min_cycle;Max_cycle;Signal;HPM_P1;HPM_P2
2023/07/29 00:01:45;;;;;;;1.02;1.00;;;21.40;75.70;;;;;;4992282;28;20202;-68
2023/07/29 00:04:11;;;;;;;1.30;1.02;;;21.30;75.60;;;;;;4975652;28;20185;-69
2023/07/29 00:06:37;;;;;;;1.10;1.10;;;21.40;75.70;;;;;;4975391;28;20212;-69
2023/07/29 00:09:03;;;;;;;2.08;1.00;;;21.30;75.60;;;;;;4980504;28;20220;-69
2023/07/29 00:11:29;;;;;;;1.20;1.10;;;21.30;75.60;;;;;;4970497;28;20195;-68
2023/07/29 00:13:55;;;;;;;1.70;1.30;;;21.30;75.60;;;;;;4986874;28;20267;-68
2023/07/29 00:16:23;;;;;;;1.13;1.02;;;21.30;75.60;;;;;;4963454;28;20370;-69
2023/07/29 00:18:49;;;;;;;1.85;1.10;;;21.30;75.60;;;;;;4999637;28;20192;-69
2023/07/29 00:21:15;;;;;;;1.00;1.00;;;21.30;75.60;;;;;;4999727;28;20279;-69
2023/07/29 00:23:41;;;;;;;1.25;1.15;;;21.30;75.60;;;;;;4977496;28;20199;-68
2023/07/29 00:26:06;;;;;;;1.42;1.33;;;21.30;75.60;;;;;;4994724;28;20216;-69
2023/07/29 00:28:32;;;;;;;0.95;0.95;;;21.30;75.60;;;;;;4993998;28;20220;-70
2023/07/29 00:30:58;;;;;;;1.20;1.10;;;21.30;75.60;;;;;;4993353;28;20181;-70
2023/07/29 00:33:24;;;;;;;1.33;1.23;;;21.30;75.60;;;;;;4983914;28;20196;-70
2023/07/29 00:35:50;;;;;;;1.13;1.08;;;21.30;75.70;;;;;;4991737;28;20181;-69
2023/07/29 00:38:16;;;;;;;1.30;1.20;;;21.30;75.60;;;;;;4985634;28;20566;-69
2023/07/29 00:40:43;;;;;;;1.10;1.10;;;21.30;76.30;;;;;;4982825;28;20192;-69
2023/07/29 00:43:09;;;;;;;1.50;1.40;;;21.30;75.60;;;;;;4974970;28;20184;-69
2023/07/29 00:45:36;;;;;;;1.27;1.10;;;21.30;75.60;;;;;;4966998;28;20331;-70
2023/07/29 00:48:03;;;;;;;1.20;1.08;;;21.30;75.60;;;;;;4996963;28;20725;-69
2023/07/29 00:50:32;;;;;;;1.30;1.20;;;21.30;75.70;;;;;;4978103;28;20240;-70
2023/07/29 00:53:00;;;;;;;1.67;1.20;;;21.30;75.70;;;;;;4975269;28;20181;-69
2023/07/29 00:55:26;;;;;;;1.35;1.25;;;21.30;75.70;;;;;;4974674;28;20183;-69
2023/07/29 00:57:54;;;;;;;1.38;1.27;;;21.30;75.70;;;;;;5005119;28;20286;-69
2023/07/29 01:00:21;;;;;;;1.42;1.33;;;21.30;75.70;;;;;;4978154;28;20199;-69
2023/07/29 01:02:47;;;;;;;1.30;1.10;;;21.30;75.80;;;;;;4967677;28;20191;-69
2023/07/29 01:05:16;;;;;;;1.35;1.10;;;21.30;75.70;;;;;;4988382;28;20193;-69
2023/07/29 01:07:50;;;;;;;1.77;1.00;;;21.30;75.70;;;;;;5005766;28;20227;-69
2023/07/29 01:10:40;;;;;;;1.17;0.93;;;21.30;75.80;;;;;;5005571;28;20207;-69
2023/07/29 01:13:22;;;;;;;1.88;1.40;;;21.30;75.80;;;;;;4998496;28;20211;-69
2023/07/29 01:16:15;;;;;;;1.10;1.05;;;21.30;75.80;;;;;;4990589;28;20184;-68
2023/07/29 01:18:47;;;;;;;1.52;1.30;;;21.30;75.80;;;;;;5005153;28;20289;-69
2023/07/29 01:21:15;;;;;;;1.35;1.23;;;21.30;75.80;;;;;;4994271;28;20192;-69
2023/07/29 01:23:41;;;;;;;1.50;1.30;;;21.30;75.80;;;;;;5008754;28;20195;-69
2023/07/29 01:26:07;;;;;;;1.88;1.40;;;21.30;75.80;;;;;;4975505;28;20209;-69
2023/07/29 01:28:33;;;;;;;1.52;1.33;;;21.20;75.80;;;;;;4982966;28;20352;-69
2023/07/29 01:31:38;;;;;;;2.00;1.30;;;21.30;75.90;;;;;;5003705;28;20276;-69
2023/07/29 01:34:40;;;;;;;1.40;1.30;;;21.30;75.90;;;;;;4958520;28;20192;-70
2023/07/29 01:37:14;;;;;;;1.17;1.08;;;21.30;75.90;;;;;;4994291;28;20709;-68
2023/07/29 01:39:43;;;;;;;1.42;1.33;;;21.30;76.00;;;;;;4992293;28;20195;-69
2023/07/29 01:42:09;;;;;;;1.08;1.08;;;21.30;76.00;;;;;;5006566;28;20330;-70
2023/07/29 01:44:36;;;;;;;1.45;1.20;;;21.30;76.00;;;;;;4970115;28;20193;-69
2023/07/29 01:47:02;;;;;;;1.58;1.40;;;21.30;76.00;;;;;;4993179;28;20244;-70
2023/07/29 01:49:27;;;;;;;1.85;1.60;;;21.20;75.90;;;;;;4978012;28;20723;-68
2023/07/29 01:51:53;;;;;;;1.50;1.40;;;21.30;76.00;;;;;;4977782;28;20188;-70
2023/07/29 01:54:19;;;;;;;1.70;1.35;;;21.30;76.00;;;;;;4984815;28;20192;-70
2023/07/29 01:56:45;;;;;;;1.50;1.40;;;21.20;75.90;;;;;;5011480;28;20212;-70
2023/07/29 01:59:11;;;;;;;1.23;1.20;;;21.30;76.00;;;;;;4994007;28;20652;-68
2023/07/29 02:01:37;;;;;;;1.52;1.42;;;21.30;76.00;;;;;;4985682;28;20192;-68
2023/07/29 02:04:03;;;;;;;1.30;1.20;;;21.20;76.00;;;;;;5013977;28;20195;-70
2023/07/29 02:06:29;;;;;;;1.33;1.20;;;21.20;75.90;;;;;;4973455;28;20221;-70
2023/07/29 02:08:55;;;;;;;1.30;1.20;;;21.30;76.00;;;;;;5004996;28;20701;-70
2023/07/29 02:11:27;;;;;;;1.45;1.35;;;21.20;75.90;;;;;;5007082;28;20196;-69
2023/07/29 02:13:55;;;;;;;1.50;1.40;;;21.20;75.90;;;;;;4996880;28;20184;-69
2023/07/29 02:16:22;;;;;;;1.42;1.33;;;21.20;75.90;;;;;;4996903;28;20239;-68
2023/07/29 02:18:49;;;;;;;2.13;1.50;;;21.20;75.90;;;;;;4997303;28;20196;-70
2023/07/29 02:21:16;;;;;;;1.58;1.48;;;21.20;76.00;;;;;;5013503;28;20196;-69
2023/07/29 02:23:41;;;;;;;2.33;1.20;;;21.20;75.90;;;;;;4987552;28;20197;-69
2023/07/29 02:26:07;;;;;;;1.30;1.20;;;21.20;75.90;;;;;;4981916;28;20227;-70
2023/07/29 02:28:33;;;;;;;1.65;1.55;;;21.30;76.00;;;;;;5004943;28;20224;-69
2023/07/29 02:31:23;;;;;;;1.50;1.40;;;21.20;75.90;;;;;;5012205;28;20200;-70
2023/07/29 02:33:49;;;;;;;1.67;1.42;;;21.20;75.90;;;;;;4979216;28;20216;-69
2023/07/29 02:36:16;;;;;;;1.50;1.20;;;21.30;76.00;;;;;;4998396;28;20291;-70
2023/07/29 02:38:43;;;;;;;1.48;1.38;;;21.30;76.00;;;;;;4970039;28;20199;-69
2023/07/29 02:41:12;;;;;;;1.40;1.30;;;21.20;75.80;;;;;;4992011;28;20615;-70
2023/07/29 02:43:38;;;;;;;1.35;1.25;;;21.30;76.00;;;;;;4984255;28;20214;-69
2023/07/29 02:46:04;;;;;;;1.60;1.50;;;21.20;75.90;;;;;;4986149;28;20280;-69
2023/07/29 02:48:30;;;;;;;1.23;1.17;;;21.20;75.80;;;;;;4992786;28;20203;-69
2023/07/29 02:50:56;;;;;;;1.20;1.10;;;21.20;75.70;;;;;;4985149;28;20195;-70
2023/07/29 02:53:22;;;;;;;1.30;1.20;;;21.20;75.80;;;;;;5008782;28;20263;-69
2023/07/29 02:55:49;;;;;;;1.70;1.60;;;21.20;75.90;;;;;;4995696;28;20188;-70
2023/07/29 02:58:14;;;;;;;1.50;1.40;;;21.20;75.80;;;;;;4990834;28;20189;-69
2023/07/29 03:00:43;;;;;;;1.60;1.50;;;21.20;75.80;;;;;;4994132;28;20238;-69
2023/07/29 03:03:09;;;;;;;1.30;1.20;;;21.30;75.90;;;;;;4991486;28;20280;-69
2023/07/29 03:05:35;;;;;;;1.38;1.27;;;21.20;75.70;;;;;;4984489;28;20698;-69
2023/07/29 03:08:01;;;;;;;1.48;1.38;;;21.20;75.80;;;;;;5004329;28;20270;-70
2023/07/29 03:10:27;;;;;;;1.42;1.30;;;21.20;75.80;;;;;;4979787;28;20219;-70
2023/07/29 03:12:56;;;;;;;1.70;1.60;;;21.20;75.80;;;;;;4991948;28;20185;-70
2023/07/29 03:15:25;;;;;;;1.20;1.10;;;21.20;75.90;;;;;;4960801;28;20554;-67
2023/07/29 03:17:52;;;;;;;2.28;1.50;;;21.20;75.80;;;;;;5008770;28;20595;-69
2023/07/29 03:20:20;;;;;;;1.30;1.20;;;21.20;75.90;;;;;;5004689;28;20203;-69
2023/07/29 03:22:46;;;;;;;1.45;1.35;;;21.20;75.90;;;;;;4979650;28;20642;-69
2023/07/29 03:25:13;;;;;;;1.50;1.40;;;21.20;75.80;;;;;;4979452;28;20334;-69
2023/07/29 03:27:42;;;;;;;2.00;1.35;;;21.20;75.80;;;;;;4978684;28;20213;-70
2023/07/29 03:30:08;;;;;;;1.50;1.40;;;21.20;75.90;;;;;;4980209;28;20227;-70
2023/07/29 03:32:34;;;;;;;1.40;1.30;;;21.20;75.80;;;;;;4979939;28;20189;-70
2023/07/29 03:34:59;;;;;;;1.30;1.20;;;21.20;75.80;;;;;;4995550;28;20188;-69
2023/07/29 03:37:25;;;;;;;1.25;1.15;;;21.20;75.90;;;;;;4972476;28;20213;-70
2023/07/29 03:39:52;;;;;;;1.05;1.05;;;21.20;75.90;;;;;;4983783;28;20204;-69
2023/07/29 03:42:18;;;;;;;1.40;1.30;;;21.20;75.90;;;;;;4981695;28;20648;-70
2023/07/29 03:44:44;;;;;;;1.35;1.25;;;21.20;75.90;;;;;;4979420;28;20192;-69
2023/07/29 03:47:09;;;;;;;2.33;1.58;;;21.20;75.90;;;;;;4979012;28;20227;-70
2023/07/29 03:49:38;;;;;;;1.50;1.40;;;21.20;75.90;;;;;;4971425;28;20216;-68
2023/07/29 03:52:06;;;;;;;1.30;1.20;;;21.20;75.90;;;;;;4995683;28;20188;-69
2023/07/29 03:54:31;;;;;;;1.38;1.27;;;21.20;75.90;;;;;;4979216;28;20543;-68
2023/07/29 03:56:57;;;;;;;1.50;1.40;;;21.20;76.00;;;;;;4978890;28;20216;-68
2023/07/29 03:59:23;;;;;;;1.30;1.20;;;21.20;76.00;;;;;;5011957;28;20200;-69
2023/07/29 04:01:49;;;;;;;1.30;1.20;;;21.20;76.00;;;;;;4978901;28;20651;-70
2023/07/29 04:04:15;;;;;;;1.98;1.50;;;21.20;76.00;;;;;;4970462;28;20188;-70
2023/07/29 04:06:41;;;;;;;1.30;1.20;;;21.20;75.90;;;;;;4994677;28;20279;-69
2023/07/29 04:09:07;;;;;;;1.50;1.40;;;21.20;76.00;;;;;;4979006;28;20298;-70
2023/07/29 04:11:33;;;;;;;2.00;1.40;;;21.20;76.00;;;;;;4971680;28;20270;-69
2023/07/29 04:13:59;;;;;;;1.50;1.40;;;21.20;76.00;;;;;;4983403;28;20220;-69
2023/07/29 04:16:25;;;;;;;2.17;1.50;;;21.20;76.00;;;;;;4973933;28;20208;-70
2023/07/29 04:18:51;;;;;;;1.25;1.15;;;21.20;76.00;;;;;;4986807;28;20206;-70
2023/07/29 04:21:16;;;;;;;1.38;1.27;;;21.20;76.10;;;;;;4973360;28;20199;-69
2023/07/29 04:23:42;;;;;;;1.75;1.20;;;21.20;76.00;;;;;;4991634;28;20285;-69
2023/07/29 04:26:08;;;;;;;1.73;1.23;;;21.20;76.00;;;;;;4992113;28;20223;-69
2023/07/29 04:28:34;;;;;;;1.70;1.60;;;21.20;76.10;;;;;;4994685;28;20241;-69
2023/07/29 04:30:59;;;;;;;1.40;1.30;;;21.20;76.00;;;;;;4970218;28;20184;-70
2023/07/29 04:33:25;;;;;;;1.42;1.33;;;21.20;76.00;;;;;;5004490;28;20251;-69
2023/07/29 04:35:51;;;;;;;2.05;1.35;;;21.20;76.10;;;;;;4968424;28;20674;-68
2023/07/29 04:38:16;;;;;;;1.40;1.30;;;21.20;76.10;;;;;;4975275;28;20196;-69
2023/07/29 04:40:42;;;;;;;1.60;1.50;;;21.20;76.10;;;;;;4983500;28;20211;-69
2023/07/29 04:43:08;;;;;;;1.60;1.50;;;21.20;76.00;;;;;;4995347;28;20350;-70
2023/07/29 04:45:34;;;;;;;1.38;1.27;;;21.20;76.10;;;;;;4994305;28;20249;-70
2023/07/29 04:47:59;;;;;;;1.33;1.23;;;21.20;76.10;;;;;;4991578;28;20208;-69
2023/07/29 04:50:25;;;;;;;1.40;1.30;;;21.20;76.10;;;;;;4977970;28;20219;-69
2023/07/29 04:52:52;;;;;;;1.48;1.38;;;21.20;76.00;;;;;;5007450;28;20201;-70
2023/07/29 04:55:18;;;;;;;1.40;1.30;;;21.20;76.10;;;;;;4968970;28;20184;-70
2023/07/29 04:57:44;;;;;;;1.73;1.63;;;21.20;76.00;;;;;;4980406;28;20208;-69
2023/07/29 05:00:10;;;;;;;1.45;1.35;;;21.20;76.20;;;;;;5002584;28;20198;-69
2023/07/29 05:02:36;;;;;;;1.13;1.10;;;21.20;76.20;;;;;;4991322;28;20204;-69
2023/07/29 05:05:02;;;;;;;2.33;1.60;;;21.20;76.10;;;;;;5010485;28;20192;-70
2023/07/29 05:07:28;;;;;;;1.45;1.23;;;21.20;76.20;;;;;;4993951;28;20215;-71
2023/07/29 05:09:54;;;;;;;1.33;1.23;;;21.20;76.20;;;;;;4984358;28;20320;-70
2023/07/29 05:12:19;;;;;;;1.30;1.20;;;21.20;76.30;;;;;;5004392;28;20199;-70
2023/07/29 05:14:45;;;;;;;1.80;1.70;;;21.20;76.30;;;;;;4978124;28;20210;-70
2023/07/29 05:17:11;;;;;;;1.48;1.38;;;21.20;76.40;;;;;;4986181;28;20326;-71
2023/07/29 05:19:37;;;;;;;1.52;1.42;;;21.20;76.30;;;;;;4994425;28;20199;-69
2023/07/29 05:22:03;;;;;;;1.35;1.25;;;21.20;76.40;;;;;;4994934;28;20242;-69
2023/07/29 05:24:28;;;;;;;1.50;1.40;;;21.20;76.30;;;;;;5003260;28;20216;-69
2023/07/29 05:26:54;;;;;;;1.50;1.40;;;21.20;76.40;;;;;;5002536;28;20223;-70
2023/07/29 05:29:20;;;;;;;1.25;1.15;;;21.20;76.50;;;;;;4991879;28;20215;-70
2023/07/29 05:31:46;;;;;;;1.40;1.30;;;21.20;76.40;;;;;;4981515;28;20184;-69
2023/07/29 05:34:11;;;;;;;1.48;1.20;;;21.20;76.40;;;;;;4969450;28;20189;-70
2023/07/29 05:36:39;;;;;;;1.55;1.45;;;21.20;76.50;;;;;;5002755;28;20247;-69
2023/07/29 05:39:04;;;;;;;1.83;1.73;;;21.20;76.60;;;;;;4993980;28;20243;-69
2023/07/29 05:41:30;;;;;;;1.35;1.27;;;21.20;76.40;;;;;;4997658;28;20212;-69
2023/07/29 05:43:56;;;;;;;1.27;1.20;;;21.20;76.40;;;;;;4979871;28;20250;-70
2023/07/29 05:46:22;;;;;;;1.30;1.20;;;21.20;76.50;;;;;;5002614;28;20216;-69
2023/07/29 05:48:48;;;;;;;1.58;1.48;;;21.20;76.40;;;;;;5003565;28;20222;-70
2023/07/29 05:51:14;;;;;;;1.80;1.60;;;21.20;76.60;;;;;;4978421;28;20180;-70
2023/07/29 05:53:40;;;;;;;2.13;1.60;;;21.20;76.60;;;;;;4995605;28;20220;-69
2023/07/29 05:56:05;;;;;;;1.58;1.48;;;21.20;76.50;;;;;;5002002;28;20177;-69
2023/07/29 05:58:31;;;;;;;1.58;1.48;;;21.20;76.60;;;;;;5009377;28;20184;-70
2023/07/29 06:00:58;;;;;;;1.70;1.60;;;21.20;76.60;;;;;;4997523;28;20275;-69
2023/07/29 06:03:24;;;;;;;1.58;1.48;;;21.20;76.60;;;;;;4975576;28;20188;-70
2023/07/29 06:05:51;;;;;;;1.65;1.55;;;21.20;76.70;;;;;;4983934;28;20237;-70
2023/07/29 06:08:17;;;;;;;1.50;1.40;;;21.20;76.80;;;;;;4980699;28;20185;-69
2023/07/29 06:10:42;;;;;;;1.48;1.38;;;21.20;76.80;;;;;;4969762;28;20227;-69
2023/07/29 06:13:08;;;;;;;1.40;1.30;;;21.20;76.70;;;;;;4986237;28;20232;-71
2023/07/29 06:15:34;;;;;;;1.60;1.50;;;21.20;76.90;;;;;;5009184;28;20192;-70
2023/07/29 06:18:00;;;;;;;2.03;1.50;;;21.20;76.90;;;;;;4994629;28;20215;-70
2023/07/29 06:20:26;;;;;;;1.60;1.50;;;21.20;76.80;;;;;;4988581;28;20189;-70
2023/07/29 06:22:52;;;;;;;2.13;1.40;;;21.20;76.90;;;;;;4978606;28;20189;-70
2023/07/29 06:25:18;;;;;;;1.88;1.63;;;21.20;76.90;;;;;;4977518;28;20193;-69
2023/07/29 06:27:43;;;;;;;1.45;1.25;;;21.20;76.90;;;;;;4976620;28;20236;-69
2023/07/29 06:30:09;;;;;;;1.52;1.42;;;21.20;77.00;;;;;;4988994;28;20216;-70
2023/07/29 06:32:35;;;;;;;1.50;1.40;;;21.20;76.90;;;;;;4997208;28;20180;-69
2023/07/29 06:35:01;;;;;;;1.48;1.38;;;21.20;77.00;;;;;;4972531;28;20188;-69
2023/07/29 06:37:27;;;;;;;1.50;1.40;;;21.20;77.10;;;;;;4974301;28;20332;-69
2023/07/29 06:39:52;;;;;;;1.63;1.52;;;21.20;77.10;;;;;;4993468;28;20250;-69
2023/07/29 06:42:18;;;;;;;1.85;1.30;;;21.20;77.10;;;;;;4985314;28;20200;-70
2023/07/29 06:44:45;;;;;;;1.42;1.33;;;21.20;77.20;;;;;;4982370;28;20247;-69
2023/07/29 06:47:11;;;;;;;1.65;1.55;;;21.20;77.20;;;;;;5001315;28;20212;-69
2023/07/29 06:49:37;;;;;;;1.60;1.50;;;21.20;77.40;;;;;;4977404;28;20204;-69
2023/07/29 06:52:03;;;;;;;1.52;1.42;;;21.20;77.30;;;;;;4993197;28;20192;-70
2023/07/29 06:54:29;;;;;;;1.88;1.52;;;21.20;77.20;;;;;;4994477;28;20177;-70
2023/07/29 06:56:55;;;;;;;1.50;1.40;;;21.20;77.30;;;;;;4992599;28;20238;-70
2023/07/29 06:59:20;;;;;;;1.50;1.40;;;21.20;77.60;;;;;;4981846;28;20184;-69
2023/07/29 07:01:46;;;;;;;1.60;1.50;;;21.20;77.30;;;;;;4996392;28;20193;-69
2023/07/29 07:04:12;;;;;;;1.75;1.65;;;21.20;77.60;;;;;;4984794;28;20227;-70
2023/07/29 07:06:38;;;;;;;1.30;1.25;;;21.20;77.60;;;;;;5000778;28;20213;-70
2023/07/29 07:09:03;;;;;;;1.40;1.30;;;21.20;77.60;;;;;;4976516;28;20227;-70
2023/07/29 07:11:29;;;;;;;1.40;1.30;;;21.20;77.70;;;;;;4969028;28;20675;-70
2023/07/29 07:13:55;;;;;;;1.60;1.50;;;21.20;77.80;;;;;;4992807;28;20188;-70
2023/07/29 07:16:20;;;;;;;1.70;1.60;;;21.20;77.90;;;;;;4995286;28;20200;-70
2023/07/29 07:18:46;;;;;;;1.40;1.30;;;21.20;77.70;;;;;;4997676;28;20195;-70
2023/07/29 07:21:12;;;;;;;1.08;1.02;;;21.20;78.00;;;;;;4971752;28;20179;-70
2023/07/29 07:23:39;;;;;;;1.40;1.30;;;21.20;78.10;;;;;;5008890;28;20200;-70
2023/07/29 07:26:05;;;;;;;1.83;1.70;;;21.20;77.80;;;;;;5005759;28;20199;-70
2023/07/29 07:28:30;;;;;;;1.52;1.42;;;21.20;77.90;;;;;;4979895;28;20188;-70
2023/07/29 07:30:56;;;;;;;1.55;1.45;;;21.20;77.90;;;;;;4979449;28;20231;-70
2023/07/29 07:33:22;;;;;;;1.70;1.60;;;21.20;77.80;;;;;;4995687;28;20632;-69
2023/07/29 07:35:48;;;;;;;1.38;1.27;;;21.20;77.90;;;;;;5011567;28;20184;-70
2023/07/29 07:38:14;;;;;;;1.50;1.40;;;21.20;77.80;;;;;;4984864;28;20185;-70
2023/07/29 07:40:40;;;;;;;1.55;1.45;;;21.20;77.80;;;;;;5006213;28;20207;-69
2023/07/29 07:43:05;;;;;;;1.33;1.23;;;21.20;77.80;;;;;;4972393;28;20201;-70
2023/07/29 07:45:32;;;;;;;1.42;1.33;;;21.20;77.70;;;;;;4992334;28;20279;-70
2023/07/29 07:47:58;;;;;;;1.50;1.40;;;21.20;77.90;;;;;;4985385;28;20212;-69
2023/07/29 07:50:24;;;;;;;1.58;1.48;;;21.20;77.60;;;;;;4988763;28;20208;-69
2023/07/29 07:52:50;;;;;;;1.50;1.40;;;21.20;77.90;;;;;;4998298;28;20275;-69
2023/07/29 07:55:16;;;;;;;1.45;1.35;;;21.20;78.00;;;;;;4995489;28;20184;-70
2023/07/29 07:57:41;;;;;;;1.63;1.50;;;21.30;78.10;;;;;;4975558;28;20296;-69
2023/07/29 08:00:09;;;;;;;1.38;1.25;;;21.20;77.90;;;;;;5007563;28;20197;-70
2023/07/29 08:02:43;;;;;;;1.45;1.35;;;21.30;78.10;;;;;;4968631;28;20593;-70
2023/07/29 08:05:09;;;;;;;1.58;1.48;;;21.30;78.80;;;;;;4980280;28;20224;-70
2023/07/29 08:07:35;;;;;;;1.88;1.27;;;21.30;78.00;;;;;;5010648;28;20294;-70
2023/07/29 08:10:01;;;;;;;1.60;1.50;;;21.30;78.20;;;;;;4985032;28;20201;-69
2023/07/29 08:12:26;;;;;;;1.48;1.30;;;21.30;78.20;;;;;;4988704;28;20207;-69
2023/07/29 08:14:52;;;;;;;2.13;1.30;;;21.30;78.30;;;;;;5002676;28;20189;-69
2023/07/29 08:17:18;;;;;;;1.48;1.38;;;21.30;78.20;;;;;;4975590;28;20212;-69
2023/07/29 08:19:44;;;;;;;1.73;1.63;;;21.30;78.20;;;;;;4999683;28;20251;-69
2023/07/29 08:22:09;;;;;;;1.35;1.25;;;21.30;78.30;;;;;;4994481;28;20192;-70
2023/07/29 08:24:35;;;;;;;1.27;1.17;;;21.30;78.10;;;;;;5006288;28;20251;-70
2023/07/29 08:27:01;;;;;;;1.80;1.70;;;21.30;78.10;;;;;;4992976;28;20208;-69
2023/07/29 08:29:26;;;;;;;1.55;1.45;;;21.30;78.10;;;;;;4989801;28;20213;-69
2023/07/29 08:31:52;;;;;;;1.20;1.10;;;21.30;78.30;;;;;;4975560;28;20183;-69
2023/07/29 08:34:18;;;;;;;1.33;1.23;;;21.30;78.20;;;;;;4994832;28;20188;-70
2023/07/29 08:36:44;;;;;;;1.40;1.30;;;21.30;78.30;;;;;;4994528;28;20208;-67
2023/07/29 08:39:10;;;;;;;1.83;1.30;;;21.30;78.20;;;;;;4978333;28;20208;-67
2023/07/29 08:41:51;;;;;;;1.50;1.40;;;21.30;78.20;;;;;;4980646;28;20224;-67
2023/07/29 08:44:26;;;;;;;1.60;1.50;;;21.30;78.20;;;;;;4978663;28;20188;-69
2023/07/29 08:46:53;;;;;;;1.30;1.20;;;21.30;78.20;;;;;;4994350;28;20274;-68
2023/07/29 08:49:22;;;;;;;1.38;1.27;;;21.30;78.20;;;;;;4986760;28;20240;-67
2023/07/29 08:51:50;;;;;;;1.30;1.20;;;21.30;78.60;;;;;;5002478;28;20189;-70
2023/07/29 08:54:16;;;;;;;1.35;1.25;;;21.30;78.60;;;;;;4983152;28;20558;-65
2023/07/29 08:56:43;;;;;;;2.10;1.30;;;21.30;78.70;;;;;;4982109;28;20200;-69
2023/07/29 08:59:10;;;;;;;2.15;1.70;;;21.40;78.50;;;;;;5001478;28;20207;-70
2023/07/29 09:01:38;;;;;;;2.70;1.55;;;21.40;78.80;;;;;;4988678;28;20196;-68
2023/07/29 09:04:04;;;;;;;1.60;1.35;;;21.40;78.70;;;;;;4994968;28;20212;-71
2023/07/29 09:06:32;;;;;;;1.98;1.60;;;21.40;78.80;;;;;;4982825;28;20339;-68
2023/07/29 09:08:59;;;;;;;1.58;0.90;;;21.40;78.50;;;;;;4975462;28;20213;-68
2023/07/29 09:11:26;;;;;;;1.40;1.30;;;21.40;78.70;;;;;;4986641;28;20188;-69
2023/07/29 09:13:52;;;;;;;1.85;1.20;;;21.40;78.30;;;;;;4985791;28;20188;-71
2023/07/29 09:16:21;;;;;;;2.13;1.40;;;21.50;78.20;;;;;;5006743;28;20213;-68
2023/07/29 09:18:51;;;;;;;1.52;1.42;;;21.50;78.40;;;;;;4998324;28;20190;-68
2023/07/29 09:21:28;;;;;;;1.33;1.23;;;21.50;78.30;;;;;;4986220;28;20195;-69
2023/07/29 09:23:55;;;;;;;1.52;1.42;;;21.50;78.20;;;;;;4993815;28;20193;-69
2023/07/29 09:26:26;;;;;;;1.58;1.38;;;21.50;79.00;;;;;;4989990;28;20216;-68
2023/07/29 09:28:58;;;;;;;1.40;1.30;;;21.50;78.30;;;;;;5006940;28;20216;-69
2023/07/29 09:31:27;;;;;;;3.13;1.30;;;21.50;78.00;;;;;;4978150;28;20176;-68
2023/07/29 09:34:02;;;;;;;3.63;1.60;;;21.50;78.80;;;;;;4974844;28;20191;-70
2023/07/29 09:36:32;;;;;;;2.25;1.67;;;21.50;79.00;;;;;;4977727;28;20218;-69
2023/07/29 09:38:59;;;;;;;2.88;1.50;;;21.50;78.50;;;;;;4991280;28;20255;-68
2023/07/29 09:41:27;;;;;;;2.08;1.52;;;21.60;78.40;;;;;;4982771;28;20185;-69
2023/07/29 09:44:11;;;;;;;3.03;1.50;;;21.50;78.50;;;;;;4990771;28;20185;-70
2023/07/29 09:46:38;;;;;;;3.40;1.65;;;21.50;78.20;;;;;;4993012;28;20212;-68
2023/07/29 09:49:07;;;;;;;1.73;1.60;;;21.60;78.40;;;;;;4990363;28;20621;-69
2023/07/29 09:51:40;;;;;;;2.47;1.35;;;21.60;78.60;;;;;;5001216;28;20192;-69
2023/07/29 09:54:06;;;;;;;1.83;1.50;;;21.60;78.60;;;;;;4990492;28;20196;-68
2023/07/29 09:56:32;;;;;;;3.72;1.88;;;21.60;79.20;;;;;;4988805;28;20208;-69
2023/07/29 09:58:58;;;;;;;3.08;1.70;;;21.60;79.20;;;;;;4982317;28;20204;-70
2023/07/29 10:01:24;;;;;;;2.63;1.40;;;21.60;79.00;;;;;;4999037;28;20225;-69
2023/07/29 10:03:51;;;;;;;5.30;1.70;;;21.60;79.10;;;;;;4965317;28;20201;-71
2023/07/29 10:06:18;;;;;;;3.60;1.50;;;21.60;80.00;;;;;;4993762;28;20263;-68
2023/07/29 10:08:44;;;;;;;3.83;2.03;;;21.70;81.70;;;;;;4984625;28;20250;-69
2023/07/29 10:11:11;;;;;;;5.00;2.17;;;21.80;83.50;;;;;;4997292;28;20188;-68
2023/07/29 10:13:38;;;;;;;5.60;2.30;;;21.70;84.80;;;;;;4972923;28;20242;-68
2023/07/29 10:16:05;;;;;;;9.00;2.85;;;21.70;85.60;;;;;;4988726;28;20180;-69
2023/07/29 10:18:34;;;;;;;3.72;2.10;;;21.70;86.30;;;;;;5008646;28;20196;-69
2023/07/29 10:21:02;;;;;;;9.93;2.50;;;21.80;87.60;;;;;;5010617;28;20201;-68
2023/07/29 10:23:39;;;;;;;6.70;2.63;;;21.80;88.10;;;;;;5000780;28;20216;-69
2023/07/29 10:26:10;;;;;;;7.18;2.45;;;21.80;89.70;;;;;;4986982;28;20254;-68
2023/07/29 10:28:44;;;;;;;9.75;2.80;;;21.80;90.00;;;;;;4997175;28;20287;-69
2023/07/29 10:31:12;;;;;;;4.32;2.15;;;21.90;90.20;;;;;;4972385;28;20227;-71
2023/07/29 10:33:38;;;;;;;6.45;2.63;;;21.80;90.50;;;;;;4990901;28;20185;-67
2023/07/29 10:36:05;;;;;;;11.68;2.88;;;21.90;90.80;;;;;;4998433;28;20288;-68
2023/07/29 10:38:31;;;;;;;6.38;2.70;;;21.90;91.10;;;;;;5008373;28;20213;-69
2023/07/29 10:40:59;;;;;;;5.95;2.35;;;21.90;90.60;;;;;;5001615;28;20188;-69
2023/07/29 10:43:38;;;;;;;7.68;2.50;;;21.90;90.50;;;;;;4996895;28;20215;-68
2023/07/29 10:46:19;;;;;;;6.90;2.28;;;21.90;90.80;;;;;;4968817;28;20188;-69
2023/07/29 10:49:01;;;;;;;3.38;1.92;;;21.90;90.80;;;;;;4986280;28;20216;-69
2023/07/29 10:51:35;;;;;;;6.68;2.38;;;22.00;91.60;;;;;;4977241;28;20216;-67
2023/07/29 10:54:12;;;;;;;4.88;2.35;;;22.00;91.60;;;;;;4995019;28;20347;-68
2023/07/29 10:56:42;;;;;;;4.47;2.30;;;21.90;91.60;;;;;;4982673;28;20212;-68
2023/07/29 10:59:11;;;;;;;3.35;2.33;;;22.00;91.80;;;;;;4994191;28;20267;-68
2023/07/29 11:01:42;;;;;;;5.15;2.20;;;22.00;91.70;;;;;;5012708;28;20548;-68
2023/07/29 11:04:20;;;;;;;4.20;2.90;;;22.00;91.70;;;;;;4995402;28;20199;-68
2023/07/29 11:07:26;;;;;;;4.35;2.40;;;22.00;91.20;;;;;;5000985;28;20208;-68
2023/07/29 11:10:01;;;;;;;5.38;2.30;;;22.00;91.60;;;;;;4925952;29;20219;-68
2023/07/29 11:12:39;;;;;;;3.17;2.10;;;22.00;91.80;;;;;;4970420;28;20284;-69
2023/07/29 11:15:14;;;;;;;3.15;1.92;;;22.10;91.50;;;;;;4984591;28;20184;-68
2023/07/29 11:18:00;;;;;;;6.97;2.60;;;22.00;91.40;;;;;;4999624;28;20709;-68
2023/07/29 11:20:28;;;;;;;6.15;2.38;;;21.90;91.40;;;;;;5012693;28;20216;-69
2023/07/29 11:22:59;;;;;;;3.53;2.28;;;21.90;91.30;;;;;;4996337;28;20193;-69
2023/07/29 11:25:28;;;;;;;5.50;2.20;;;21.90;91.20;;;;;;5004599;28;20198;-67
2023/07/29 11:27:58;;;;;;;4.00;2.20;;;21.80;91.40;;;;;;4999110;28;20208;-69
2023/07/29 11:30:29;;;;;;;4.75;2.25;;;21.90;91.00;;;;;;5004235;28;20215;-69
2023/07/29 11:32:55;;;;;;;3.03;2.40;;;21.80;91.10;;;;;;5004297;28;20212;-69
2023/07/29 11:35:21;;;;;;;3.80;2.20;;;21.80;91.00;;;;;;4983988;28;20203;-67
2023/07/29 11:37:51;;;;;;;3.47;2.28;;;21.80;91.10;;;;;;4977714;28;20569;-69
2023/07/29 11:40:20;;;;;;;3.60;2.22;;;21.80;91.20;;;;;;4971163;28;20207;-69
2023/07/29 11:42:48;;;;;;;4.88;2.10;;;21.80;91.20;;;;;;5013133;28;20184;-68
2023/07/29 11:45:14;;;;;;;3.45;2.20;;;21.80;91.20;;;;;;4994524;28;20266;-70
2023/07/29 11:47:41;;;;;;;4.53;1.95;;;21.80;91.10;;;;;;4995195;28;20208;-69
2023/07/29 11:50:10;;;;;;;5.18;2.55;;;21.80;90.90;;;;;;4996751;28;20299;-70
2023/07/29 11:52:38;;;;;;;2.65;1.90;;;21.70;90.90;;;;;;4976075;28;20189;-69
2023/07/29 11:55:05;;;;;;;4.65;2.25;;;21.80;90.90;;;;;;4975550;28;20195;-68
2023/07/29 11:57:36;;;;;;;5.00;2.35;;;21.80;90.90;;;;;;4988248;28;20218;-69
2023/07/29 12:00:09;;;;;;;2.83;2.22;;;21.80;90.80;;;;;;5003394;28;20697;-69
2023/07/29 12:02:39;;;;;;;3.85;2.30;;;21.80;90.80;;;;;;5005324;28;20647;-69
2023/07/29 12:05:06;;;;;;;4.32;2.15;;;21.70;90.60;;;;;;4986441;28;20200;-69
2023/07/29 12:07:33;;;;;;;2.38;1.80;;;21.80;90.60;;;;;;4975808;28;20249;-70
2023/07/29 12:10:01;;;;;;;3.80;2.20;;;21.80;90.50;;;;;;5000265;28;20220;-68
2023/07/29 12:12:27;;;;;;;2.20;2.00;;;21.80;90.60;;;;;;5004914;28;20188;-69
2023/07/29 12:14:55;;;;;;;2.47;2.13;;;21.80;90.40;;;;;;4987914;28;20181;-70
2023/07/29 12:17:20;;;;;;;5.65;2.60;;;21.80;90.50;;;;;;5010684;28;20218;-69
2023/07/29 12:19:46;;;;;;;5.60;2.80;;;21.80;90.40;;;;;;4980452;28;20196;-68
2023/07/29 12:22:12;;;;;;;5.53;2.90;;;21.80;90.40;;;;;;4991859;28;20216;-71
2023/07/29 12:24:40;;;;;;;7.47;3.35;;;21.80;90.50;;;;;;4971998;28;20227;-69
2023/07/29 12:27:12;;;;;;;5.32;2.47;;;21.80;90.40;;;;;;4969479;28;20687;-69
2023/07/29 12:29:46;;;;;;;7.05;3.35;;;21.80;90.30;;;;;;4964263;28;20211;-68
2023/07/29 12:32:12;;;;;;;6.25;3.80;;;21.80;90.50;;;;;;4978627;28;20219;-67
2023/07/29 12:34:39;;;;;;;8.77;5.40;;;21.80;90.60;;;;;;5010138;28;20580;-69
2023/07/29 12:37:06;;;;;;;9.65;4.68;;;21.80;90.40;;;;;;4985582;28;20213;-70
2023/07/29 12:39:35;;;;;;;4.93;3.90;;;21.80;90.50;;;;;;5003818;28;20283;-69
2023/07/29 12:42:03;;;;;;;5.75;3.38;;;21.80;90.40;;;;;;5010923;28;20196;-72
2023/07/29 12:44:36;;;;;;;11.55;4.78;;;21.80;90.30;;;;;;5002695;28;20243;-69
2023/07/29 12:47:05;;;;;;;7.15;3.40;;;21.80;90.20;;;;;;5010700;28;20203;-68
2023/07/29 12:49:31;;;;;;;8.13;4.43;;;21.80;90.50;;;;;;5002775;28;20212;-69
2023/07/29 12:51:59;;;;;;;3.58;2.78;;;21.80;90.10;;;;;;4995014;28;20562;-69